Pine Valley, CA

7:22 AM PDT on April 29, 2017 (GMT -0700)
MBMSSD | | Change Station
Active Advisory: Wind Advisory

Elev 3260 ft 32.76 °N, 116.49 °W | Updated 48 minutes ago

Clear
Clear
55.0 °F
Feels Like 55.0 °F
N
13.0
Wind Variable Wind from ENE

Today
High -- | Low -- °F
--% Chance of Precip.
Yesterday
High -- | Low -- °F
Precip. -- in
Pressure 29.88 in
Visibility -9999.0 miles
Clouds
Dew Point 5.0 °F
Humidity 13%
Rainfall 0.00 in
Snow Depth Not available.
6:00 AM 7:26 PM
Waxing Crescent, 14% visible
METAR KCZZ 291352Z AUTO 05017G25KT 14/M11 A2995 RMK AO1 PK WND 05028/1258 SLP117 T01391111
Pressure 29.88 in
Visibility -9999.0 miles
Clouds
Dew Point 5.0 °F
Humidity 13%
Rainfall 0.00 in
Snow Depth Not available.
6:00 AM 7:26 PM
Waxing Crescent, 14% visible
METAR KCZZ 291352Z AUTO 05017G25KT 14/M11 A2995 RMK AO1 PK WND 05028/1258 SLP117 T01391111

Get Your Daily Forecast Email!

Thanks for signing up!

Be on the lookout for a verification email in your inbox.

You'll start receiving severe weather alerts in your inbox..

×

10-Day Weather Forecast

Almanac

Astronomy

Apr. 29, 2017 Rise Set
Actual Time
Civil Twilight
Nautical Twilight
Astronomical Twilight
Moon
Length of Visible Light
Length of Day
Tomorrow will be .
, % of the Moon is Illuminated

Today's Extremes

State Highs State Lows

Community

WunderPhotos

WunderBlog® & News

Nearby

Air Quality

  Air Quality AQ Index Pollutant
Not available.

Snow Depth

Station Depth Elevation

Earthquake Activity

City Distance Mag. Time & Date
Minimum magnitude displayed is 2.5.

Coastal Water Temperatures

Place Temperature

Stations

Nearby Weather Stations

Station Location Temp. Windchill Dew Point Humidity Wind Precip. Elev Updated Type
                   

Watches & Warnings

Wind Advisory
Issued: 3:52 AM PDT Apr. 29, 2017 – National Weather Service

... Wind Advisory now in effect until noon PDT today...

* winds... areas of northeast winds 20 to 30 mph with gusts to 50
mph.

* Timing... strongest and most widespread winds after sunrise.
Winds will diminish rapidly during the late morning and afternoon.

* Location... strongest winds near and along coastal slopes of
the mountains.

* Impacts... the winds will make driving difficult... especially for
motorists with high profile vehicles. Watch for broken tree
limbs and downed Palm fronds.

* Reports... please send reports of strong winds and wind damage to
the National Weather Service via facebook and twitter feeds and
online.

Precautionary/preparedness actions...

A Wind Advisory means that winds of 35 mph are expected. Winds
this strong can make driving difficult... especially for high
profile vehicles. Use extra caution.



17